createdAt,value
2022-08-21T00:02:26.509Z,91.47
2022-08-21T00:04:57.426Z,88.08
2022-08-21T00:07:27.211Z,89.66
2022-08-21T00:09:54.424Z,90.08
2022-08-21T00:12:23.994Z,87.97
2022-08-21T00:14:51.399Z,85.79
2022-08-21T00:17:24.284Z,84.84
2022-08-21T00:19:52.688Z,85.36
2022-08-21T00:22:21.123Z,85.83
2022-08-21T00:24:50.360Z,88.21
2022-08-21T00:27:17.266Z,89.81
2022-08-21T00:29:44.619Z,90.28
2022-08-21T00:32:11.462Z,89.67
2022-08-21T00:34:38.530Z,93.41
2022-08-21T00:37:05.623Z,90.23
2022-08-21T00:39:35.022Z,94.40
2022-08-21T00:42:02.131Z,93.14
2022-08-21T00:44:30.674Z,95.00
2022-08-21T00:46:57.532Z,91.03
2022-08-21T00:49:27.163Z,89.70
2022-08-21T00:51:57.371Z,92.13
2022-08-21T00:54:26.968Z,92.24
2022-08-21T00:57:00.711Z,89.35
2022-08-21T00:59:33.180Z,92.12
2022-08-21T01:02:00.011Z,93.67
2022-08-21T01:04:27.269Z,95.00
2022-08-21T01:06:54.411Z,93.90
2022-08-21T01:09:21.425Z,91.59
2022-08-21T01:11:49.231Z,90.07
2022-08-21T01:14:18.954Z,91.38
2022-08-21T01:16:50.489Z,85.30
2022-08-21T01:19:19.267Z,87.41
2022-08-21T01:21:48.884Z,87.53
2022-08-21T01:24:16.011Z,92.04
2022-08-21T01:26:45.219Z,90.85
2022-08-21T01:29:17.717Z,89.54
2022-08-21T01:31:45.324Z,89.38
2022-08-21T01:34:12.320Z,91.70
2022-08-21T01:36:39.337Z,90.82
2022-08-21T01:39:07.735Z,91.77
2022-08-21T01:41:34.967Z,92.94
2022-08-21T01:44:05.237Z,93.76
2022-08-21T01:46:32.486Z,91.41
2022-08-21T01:49:00.538Z,93.14
2022-08-21T01:51:27.496Z,94.81
2022-08-21T01:53:56.046Z,91.53
2022-08-21T01:56:25.679Z,91.85
2022-08-21T01:58:52.679Z,92.08
2022-08-21T02:01:19.677Z,92.89
2022-08-21T02:03:46.660Z,91.16
2022-08-21T02:06:16.063Z,91.78
2022-08-21T02:08:43.144Z,88.54
2022-08-21T02:11:10.196Z,87.89
2022-08-21T02:13:38.605Z,85.35
2022-08-21T02:16:06.130Z,89.92
2022-08-21T02:18:33.201Z,87.60
2022-08-21T02:21:01.229Z,88.50
2022-08-21T02:23:28.295Z,88.52
2022-08-21T02:25:55.920Z,88.24
2022-08-21T02:28:23.207Z,88.49
2022-08-21T02:30:53.083Z,89.02
2022-08-21T02:33:21.089Z,86.26
2022-08-21T02:35:49.733Z,86.57
2022-08-21T02:38:20.018Z,86.93
2022-08-21T02:40:51.270Z,86.32
2022-08-21T02:43:19.341Z,86.63
2022-08-21T02:45:48.574Z,90.12
2022-08-21T02:48:20.144Z,86.55
2022-08-21T02:50:52.588Z,87.81
2022-08-21T02:53:20.798Z,86.67
2022-08-21T02:55:54.139Z,90.33
2022-08-21T02:58:24.348Z,91.78
2022-08-21T03:00:52.150Z,90.52
2022-08-21T03:03:21.543Z,89.89
2022-08-21T03:05:48.914Z,88.80
2022-08-21T03:08:16.883Z,86.79
2022-08-21T03:10:46.084Z,89.65
2022-08-21T03:13:14.955Z,89.43
2022-08-21T03:15:42.921Z,91.72
2022-08-21T03:18:12.417Z,89.61
2022-08-21T03:20:42.119Z,88.09
2022-08-21T03:23:13.359Z,89.20
2022-08-21T03:25:42.296Z,86.26
2022-08-21T03:28:15.352Z,88.06
2022-08-21T03:30:42.584Z,91.42
2022-08-21T03:33:15.236Z,91.22
2022-08-21T03:35:46.149Z,89.67
2022-08-21T03:38:14.050Z,90.29
2022-08-21T03:40:41.749Z,91.88
2022-08-21T03:43:10.572Z,92.45
2022-08-21T03:45:39.089Z,93.85
2022-08-21T03:48:09.425Z,93.25
2022-08-21T03:50:43.381Z,91.23
2022-08-21T03:53:17.341Z,92.85
2022-08-21T03:55:48.593Z,95.00
2022-08-21T03:58:19.223Z,92.44
2022-08-21T04:00:51.043Z,93.20
2022-08-21T04:03:18.211Z,94.09
2022-08-21T04:05:47.468Z,93.73
2022-08-21T04:08:17.799Z,91.49
2022-08-21T04:10:47.590Z,93.93
2022-08-21T04:13:15.256Z,90.56
2022-08-21T04:15:49.781Z,91.21
2022-08-21T04:18:17.783Z,93.83
2022-08-21T04:20:50.715Z,91.66
2022-08-21T04:23:23.580Z,93.05
2022-08-21T04:25:51.952Z,91.13
2022-08-21T04:28:20.327Z,93.25
2022-08-21T04:30:48.004Z,95.00
2022-08-21T04:33:15.412Z,94.49
2022-08-21T04:35:42.927Z,95.00
2022-08-21T04:38:09.928Z,95.00
2022-08-21T04:40:46.827Z,94.55
2022-08-21T04:43:15.079Z,95.00
2022-08-21T04:45:45.668Z,95.00
2022-08-21T04:48:19.544Z,95.00
2022-08-21T04:50:52.040Z,95.00
2022-08-21T04:53:23.622Z,92.35
2022-08-21T04:55:55.173Z,94.24
2022-08-21T04:58:26.908Z,95.00
2022-08-21T05:00:56.879Z,93.33
2022-08-21T05:03:24.895Z,91.26
2022-08-21T05:05:51.790Z,92.32
2022-08-21T05:08:22.626Z,94.04
2022-08-21T05:10:49.902Z,90.94
2022-08-21T05:13:19.183Z,95.00
2022-08-21T05:15:47.508Z,95.00
2022-08-21T05:18:14.786Z,95.00
2022-08-21T05:20:41.619Z,95.00
2022-08-21T05:23:10.108Z,95.00
2022-08-21T05:25:39.947Z,95.00
2022-08-21T05:28:07.611Z,95.00
2022-08-21T05:30:37.742Z,95.00
2022-08-21T05:33:07.333Z,94.84
2022-08-21T05:35:34.570Z,95.00
2022-08-21T05:38:02.669Z,95.00
2022-08-21T05:40:29.725Z,95.00
2022-08-21T05:43:00.693Z,95.00
2022-08-21T05:45:43.191Z,95.00
2022-08-21T05:48:17.546Z,95.00
2022-08-21T05:50:45.535Z,95.00
2022-08-21T05:53:16.040Z,95.00
2022-08-21T05:55:46.033Z,95.00
2022-08-21T05:58:16.047Z,94.81
2022-08-21T06:00:43.409Z,95.00
2022-08-21T06:03:17.692Z,95.00
2022-08-21T06:05:44.577Z,90.29
2022-08-21T06:08:14.824Z,92.24
2022-08-21T06:10:41.905Z,95.00
2022-08-21T06:13:08.929Z,95.00
2022-08-21T06:15:38.634Z,95.00
2022-08-21T06:18:06.582Z,95.00
2022-08-21T06:20:35.075Z,95.00
2022-08-21T06:23:02.603Z,95.00
2022-08-21T06:25:30.904Z,95.00
2022-08-21T06:28:03.143Z,95.00
2022-08-21T06:30:32.376Z,95.00
2022-08-21T06:33:00.413Z,95.00
2022-08-21T06:35:27.850Z,95.00
2022-08-21T06:37:56.253Z,95.00
2022-08-21T06:40:27.767Z,95.00
2022-08-21T06:42:58.381Z,95.00
2022-08-21T06:45:32.615Z,95.00
2022-08-21T06:48:00.247Z,95.00
2022-08-21T06:50:27.787Z,95.00
2022-08-21T06:53:02.089Z,95.00
2022-08-21T06:55:32.011Z,94.61
2022-08-21T06:57:59.006Z,93.09
2022-08-21T07:00:30.307Z,95.00
2022-08-21T07:02:57.570Z,92.52
2022-08-21T07:05:27.373Z,93.78
2022-08-21T07:07:58.346Z,92.91
2022-08-21T07:10:29.379Z,76.69
2022-08-21T07:13:00.140Z,75.03
2022-08-21T07:15:29.463Z,72.43
2022-08-21T07:17:57.745Z,68.18
2022-08-21T07:20:26.824Z,69.60
2022-08-21T07:22:54.191Z,72.79
2022-08-21T07:25:21.580Z,68.06
2022-08-21T07:27:55.643Z,63.64
2022-08-21T07:30:24.032Z,61.93
2022-08-21T07:32:51.832Z,58.34
2022-08-21T07:35:27.202Z,55.34
2022-08-21T07:37:54.908Z,57.60
2022-08-21T07:40:24.401Z,58.92
2022-08-21T07:42:55.123Z,61.60
2022-08-21T07:45:23.989Z,63.65
2022-08-21T07:47:55.422Z,63.45
2022-08-21T07:50:27.810Z,64.36
2022-08-21T07:52:55.461Z,60.32
2022-08-21T07:55:25.768Z,60.55
2022-08-21T07:58:02.685Z,60.56
2022-08-21T08:00:31.326Z,59.78
2022-08-21T08:02:58.539Z,56.10
2022-08-21T08:05:29.337Z,56.08
2022-08-21T08:07:58.843Z,57.84
2022-08-21T08:10:27.670Z,59.09
2022-08-21T08:12:56.282Z,59.29
2022-08-21T08:15:27.542Z,57.00
2022-08-21T08:17:55.372Z,64.47
2022-08-21T08:20:23.922Z,62.67
2022-08-21T08:22:51.474Z,65.66
2022-08-21T08:25:23.129Z,63.44
2022-08-21T08:27:51.059Z,62.35
2022-08-21T08:30:22.462Z,61.15
2022-08-21T08:32:49.310Z,55.33
2022-08-21T08:35:16.934Z,59.30
2022-08-21T08:37:51.410Z,54.54
2022-08-21T08:40:30.605Z,56.25
2022-08-21T08:43:00.061Z,53.96
2022-08-21T08:45:33.880Z,53.50
2022-08-21T08:48:06.582Z,50.01
2022-08-21T08:50:46.428Z,52.05
2022-08-21T08:53:19.465Z,50.18
2022-08-21T08:55:52.165Z,50.08
2022-08-21T08:58:23.977Z,49.86
2022-08-21T09:00:55.956Z,53.19
2022-08-21T09:03:25.891Z,51.37
2022-08-21T09:06:01.553Z,51.20
2022-08-21T09:08:48.502Z,51.83
2022-08-21T09:11:28.027Z,50.11
2022-08-21T09:14:08.750Z,52.06
2022-08-21T09:16:47.710Z,58.70
2022-08-21T09:19:30.385Z,56.16
2022-08-21T09:22:09.434Z,56.66
2022-08-21T09:25:01.118Z,55.24
2022-08-21T09:27:28.168Z,51.43
2022-08-21T09:29:58.892Z,53.06
2022-08-21T09:32:36.864Z,51.92
2022-08-21T09:35:08.250Z,52.52
2022-08-21T09:37:46.833Z,53.25
2022-08-21T09:40:29.916Z,47.63
2022-08-21T09:42:59.961Z,46.97
2022-08-21T09:45:28.323Z,45.64
2022-08-21T09:48:12.715Z,46.24
2022-08-21T09:50:40.973Z,47.14
2022-08-21T09:53:18.483Z,45.32
2022-08-21T09:55:50.591Z,47.28
2022-08-21T09:58:19.637Z,49.55
2022-08-21T10:00:57.160Z,49.12
2022-08-21T10:03:26.762Z,50.71
2022-08-21T10:05:59.009Z,51.79
2022-08-21T10:08:27.858Z,45.75
2022-08-21T10:11:04.136Z,45.57
2022-08-21T10:13:43.690Z,46.58
2022-08-21T10:16:27.272Z,47.20
2022-08-21T10:19:07.034Z,47.39
2022-08-21T10:21:43.517Z,47.83
2022-08-21T10:24:30.517Z,48.87
2022-08-21T10:27:20.990Z,42.75
2022-08-21T10:29:55.370Z,37.01
2022-08-21T10:32:47.628Z,39.60
2022-08-21T10:35:23.424Z,40.31
2022-08-21T10:38:39.386Z,39.66
2022-08-21T10:41:15.307Z,40.88
2022-08-21T10:43:52.365Z,38.58
2022-08-21T10:46:39.136Z,39.03
2022-08-21T10:49:18.613Z,41.86
2022-08-21T10:51:58.456Z,42.64
2022-08-21T10:54:38.324Z,42.59
2022-08-21T10:57:10.996Z,42.36
2022-08-21T10:59:43.269Z,40.30
2022-08-21T11:02:16.379Z,42.16
2022-08-21T11:04:56.352Z,44.09
2022-08-21T11:07:33.643Z,46.92
2022-08-21T11:10:10.265Z,49.90
2022-08-21T11:12:44.267Z,45.18
2022-08-21T11:15:29.643Z,45.50
2022-08-21T11:18:04.580Z,44.88
2022-08-21T11:20:42.614Z,45.07
2022-08-21T11:23:17.704Z,41.14
2022-08-21T11:25:50.564Z,45.73
2022-08-21T11:28:22.683Z,50.64
2022-08-21T11:31:13.924Z,48.14
2022-08-21T11:33:57.991Z,44.60
2022-08-21T11:36:35.284Z,47.79
2022-08-21T11:39:16.536Z,46.05
2022-08-21T11:41:54.986Z,44.83
2022-08-21T11:44:33.012Z,46.56
2022-08-21T11:47:06.872Z,46.69
2022-08-21T11:49:48.273Z,48.87
2022-08-21T11:52:21.604Z,47.48
2022-08-21T11:54:59.631Z,41.65
2022-08-21T11:57:34.117Z,46.21
2022-08-21T12:00:06.398Z,47.88
2022-08-21T12:02:37.287Z,48.09
2022-08-21T12:05:09.353Z,48.18
2022-08-21T12:07:43.267Z,47.46
2022-08-21T12:10:15.427Z,42.11
2022-08-21T12:12:46.985Z,45.82
2022-08-21T12:15:18.370Z,40.19
2022-08-21T12:17:58.990Z,44.10
2022-08-21T12:20:39.588Z,42.76
2022-08-21T12:23:25.096Z,40.98
2022-08-21T12:26:20.702Z,45.31
2022-08-21T12:28:49.149Z,39.85
2022-08-21T12:31:25.640Z,37.71
2022-08-21T12:33:58.311Z,40.02
2022-08-21T12:36:38.842Z,39.33
2022-08-21T12:39:15.016Z,35.66
2022-08-21T12:41:49.331Z,36.75
2022-08-21T12:44:23.902Z,31.57
2022-08-21T12:46:56.771Z,38.82
2022-08-21T12:49:36.187Z,30.79
2022-08-21T12:52:13.453Z,31.61
2022-08-21T12:54:43.358Z,35.23
2022-08-21T12:57:21.713Z,33.94
2022-08-21T12:59:56.484Z,34.92
2022-08-21T13:02:27.146Z,33.47
2022-08-21T13:04:59.291Z,32.29
2022-08-21T13:07:30.723Z,35.04
2022-08-21T13:10:01.470Z,34.16
2022-08-21T13:12:32.768Z,33.46
2022-08-21T13:15:08.768Z,32.81
2022-08-21T13:17:39.565Z,34.08
2022-08-21T13:20:10.952Z,31.82
2022-08-21T13:22:43.252Z,34.94
2022-08-21T13:25:12.641Z,33.52
2022-08-21T13:27:56.938Z,34.85
2022-08-21T13:30:27.297Z,30.58
2022-08-21T13:33:01.378Z,32.07
2022-08-21T13:35:35.696Z,35.98
2022-08-21T13:38:05.505Z,33.83
2022-08-21T13:40:47.415Z,34.63
2022-08-21T13:43:21.165Z,35.90
2022-08-21T13:45:54.383Z,33.80
2022-08-21T13:48:29.961Z,36.47
2022-08-21T13:50:58.254Z,30.55
2022-08-21T13:53:31.342Z,31.90
2022-08-21T13:56:02.766Z,34.31
2022-08-21T13:58:41.944Z,35.33
2022-08-21T14:01:24.620Z,35.15
2022-08-21T14:03:55.452Z,37.08
2022-08-21T14:06:29.038Z,31.95
2022-08-21T14:09:00.758Z,35.73
2022-08-21T14:11:33.391Z,31.30
2022-08-21T14:14:07.469Z,32.74
2022-08-21T14:16:45.727Z,35.61
2022-08-21T14:19:22.122Z,35.74
2022-08-21T14:21:52.106Z,33.41
2022-08-21T14:24:28.173Z,32.25
2022-08-21T14:27:01.955Z,29.64
2022-08-21T14:29:36.282Z,32.35
2022-08-21T14:32:21.492Z,31.47
2022-08-21T14:34:54.536Z,33.33
2022-08-21T14:37:23.925Z,31.32
2022-08-21T14:39:51.332Z,32.08
2022-08-21T14:42:19.960Z,30.95
2022-08-21T14:44:57.596Z,29.81
2022-08-21T14:47:25.853Z,27.76
2022-08-21T14:49:57.291Z,31.06
2022-08-21T14:52:24.952Z,26.85
2022-08-21T14:54:51.919Z,27.73
2022-08-21T14:57:18.785Z,32.30
2022-08-21T14:59:47.987Z,32.88
2022-08-21T15:02:18.068Z,30.09
2022-08-21T15:04:48.767Z,31.09
2022-08-21T15:07:15.610Z,33.64
2022-08-21T15:09:45.027Z,32.20
2022-08-21T15:12:16.244Z,33.60
2022-08-21T15:14:45.899Z,32.46
2022-08-21T15:17:13.929Z,31.17
2022-08-21T15:19:43.323Z,35.31
2022-08-21T15:22:15.455Z,30.63
2022-08-21T15:24:48.490Z,30.68
2022-08-21T15:27:19.399Z,31.92
2022-08-21T15:29:46.643Z,31.19
2022-08-21T15:32:20.282Z,29.06
2022-08-21T15:34:50.355Z,31.26
2022-08-21T15:37:19.838Z,32.20
2022-08-21T15:39:52.292Z,33.93
2022-08-21T15:42:25.755Z,32.76
2022-08-21T15:45:02.401Z,33.99
2022-08-21T15:47:36.750Z,32.36
2022-08-21T15:50:08.581Z,31.95
2022-08-21T15:52:36.905Z,32.54
2022-08-21T15:55:05.417Z,33.49
2022-08-21T15:57:32.715Z,35.54
2022-08-21T16:00:01.660Z,32.00
2022-08-21T16:02:32.946Z,32.30
2022-08-21T16:05:02.853Z,31.33
2022-08-21T16:07:32.779Z,34.03
2022-08-21T16:10:00.716Z,35.69
2022-08-21T16:12:35.250Z,30.88
2022-08-21T16:15:05.010Z,31.05
2022-08-21T16:17:35.809Z,31.23
2022-08-21T16:20:07.198Z,33.14
2022-08-21T16:22:43.950Z,35.39
2022-08-21T16:25:13.246Z,35.76
2022-08-21T16:27:46.048Z,36.50
2022-08-21T16:30:15.023Z,37.18
2022-08-21T16:32:45.145Z,36.22
2022-08-21T16:35:16.625Z,36.86
2022-08-21T16:37:51.040Z,37.09
2022-08-21T16:40:20.448Z,38.98
2022-08-21T16:42:49.615Z,40.76
2022-08-21T16:45:21.612Z,42.37
2022-08-21T16:47:49.398Z,41.53
2022-08-21T16:50:22.910Z,43.37
2022-08-21T16:52:53.792Z,41.25
2022-08-21T16:55:21.899Z,39.39
2022-08-21T16:57:48.873Z,45.35
2022-08-21T17:00:16.800Z,45.90
2022-08-21T17:02:47.784Z,46.88
2022-08-21T17:05:24.394Z,47.25
2022-08-21T17:07:53.756Z,47.64
2022-08-21T17:10:23.664Z,49.36
2022-08-21T17:12:55.592Z,49.96
2022-08-21T17:15:30.978Z,52.66
2022-08-21T17:18:03.818Z,50.07
2022-08-21T17:20:32.329Z,50.55
2022-08-21T17:23:04.521Z,52.63
2022-08-21T17:25:32.458Z,51.20
2022-08-21T17:28:04.068Z,51.44
2022-08-21T17:30:33.697Z,54.48
2022-08-21T17:33:01.500Z,59.82
2022-08-21T17:35:28.960Z,61.00
2022-08-21T17:37:59.528Z,60.77
2022-08-21T17:40:31.442Z,58.67
2022-08-21T17:43:07.104Z,64.76
2022-08-21T17:45:39.237Z,69.68
2022-08-21T17:48:06.885Z,65.44
2022-08-21T17:50:34.427Z,66.12
2022-08-21T17:53:02.512Z,68.44
2022-08-21T17:55:32.015Z,66.42
2022-08-21T17:58:01.051Z,71.71
2022-08-21T18:00:31.148Z,68.87
2022-08-21T18:03:02.064Z,68.17
2022-08-21T18:05:32.392Z,67.38
2022-08-21T18:08:03.670Z,67.07
2022-08-21T18:10:33.093Z,69.61
2022-08-21T18:13:05.861Z,71.08
2022-08-21T18:15:34.289Z,71.92
2022-08-21T18:18:03.945Z,68.46
2022-08-21T18:20:31.976Z,68.73
2022-08-21T18:23:01.853Z,68.28
2022-08-21T18:25:32.020Z,67.15
2022-08-21T18:28:02.868Z,69.84
2022-08-21T18:30:37.477Z,70.50
2022-08-21T18:33:07.507Z,71.78
2022-08-21T18:35:35.230Z,67.76
2022-08-21T18:38:02.301Z,66.45
2022-08-21T18:40:37.734Z,68.91
2022-08-21T18:43:07.685Z,68.54
2022-08-21T18:45:37.316Z,70.67
2022-08-21T18:48:07.285Z,71.60
2022-08-21T18:50:36.815Z,68.86
2022-08-21T18:53:20.829Z,70.82
2022-08-21T18:55:57.117Z,73.24
2022-08-21T18:58:34.665Z,73.90
2022-08-21T19:01:01.842Z,74.97
2022-08-21T19:03:29.767Z,74.49
2022-08-21T19:05:58.777Z,74.58
2022-08-21T19:08:27.385Z,75.36
2022-08-21T19:10:59.510Z,76.02
2022-08-21T19:13:27.094Z,76.38
2022-08-21T19:15:57.517Z,75.21
2022-08-21T19:18:28.674Z,74.19
2022-08-21T19:20:57.660Z,74.94
2022-08-21T19:23:29.414Z,77.82
2022-08-21T19:26:02.789Z,76.74
2022-08-21T19:28:33.912Z,76.04
2022-08-21T19:31:06.623Z,77.24
2022-08-21T19:33:40.925Z,77.57
2022-08-21T19:36:15.500Z,74.65
2022-08-21T19:38:43.583Z,75.00
2022-08-21T19:41:18.741Z,75.06
2022-08-21T19:43:51.046Z,71.76
2022-08-21T19:46:26.244Z,71.36
2022-08-21T19:49:01.193Z,70.23
2022-08-21T19:51:29.105Z,73.85
2022-08-21T19:53:57.419Z,73.85
2022-08-21T19:56:36.634Z,74.79
2022-08-21T19:59:07.719Z,73.69
2022-08-21T20:01:40.093Z,73.97
2022-08-21T20:06:56.435Z,71.27
2022-08-21T20:12:09.889Z,75.52
2022-08-21T20:14:47.549Z,74.57
2022-08-21T20:17:17.422Z,74.69
2022-08-21T20:19:50.174Z,75.07
2022-08-21T20:22:24.345Z,76.44
2022-08-21T20:24:53.939Z,74.85
2022-08-21T20:27:25.858Z,72.08
2022-08-21T20:29:54.704Z,71.35
2022-08-21T20:32:22.341Z,74.36
2022-08-21T20:34:52.043Z,74.79
2022-08-21T20:37:22.162Z,72.62
2022-08-21T20:40:10.460Z,75.14
2022-08-21T20:42:41.301Z,77.14
2022-08-21T20:45:28.785Z,75.60
2022-08-21T20:48:04.183Z,73.56
2022-08-21T20:50:39.911Z,77.31
2022-08-21T20:53:13.339Z,76.71
2022-08-21T20:55:49.678Z,77.81
2022-08-21T20:58:33.243Z,78.65
2022-08-21T21:01:07.702Z,77.97
2022-08-21T21:03:42.283Z,77.50
2022-08-21T21:06:17.143Z,74.18
2022-08-21T21:08:49.904Z,77.24
2022-08-21T21:11:24.886Z,75.97
2022-08-21T21:14:00.550Z,75.96
2022-08-21T21:16:33.885Z,77.45
2022-08-21T21:19:11.143Z,74.66
2022-08-21T21:21:51.242Z,75.41
2022-08-21T21:24:32.210Z,72.93
2022-08-21T21:30:04.611Z,75.00
2022-08-21T21:32:34.834Z,80.07
2022-08-21T21:35:06.332Z,76.45
2022-08-21T21:37:45.283Z,76.79
2022-08-21T21:40:32.189Z,71.87
2022-08-21T21:43:10.915Z,69.65
2022-08-21T21:45:49.194Z,71.40
2022-08-21T21:48:28.959Z,74.54
2022-08-21T21:53:56.387Z,75.46
2022-08-21T21:56:34.523Z,74.54
2022-08-21T21:59:18.202Z,73.75
2022-08-21T22:01:51.450Z,75.51
2022-08-21T22:04:32.691Z,75.35
2022-08-21T22:07:11.686Z,76.28
2022-08-21T22:09:48.953Z,74.12
2022-08-21T22:12:32.159Z,73.17
2022-08-21T22:15:05.969Z,75.09
2022-08-21T22:17:46.683Z,74.80
2022-08-21T22:20:22.667Z,74.27
2022-08-21T22:22:56.587Z,74.26
2022-08-21T22:25:34.710Z,76.48
2022-08-21T22:28:06.789Z,76.26
2022-08-21T22:30:42.325Z,76.96
2022-08-21T22:33:20.066Z,76.02
2022-08-21T22:35:51.646Z,73.90
2022-08-21T22:38:29.884Z,75.17
2022-08-21T22:41:11.357Z,77.65
2022-08-21T22:43:50.865Z,76.49
2022-08-21T22:46:28.803Z,76.29
2022-08-21T22:49:02.708Z,75.88
2022-08-21T22:51:34.934Z,74.59
2022-08-21T22:54:04.205Z,74.20
2022-08-21T22:56:51.469Z,73.77
2022-08-21T22:59:26.651Z,74.04
2022-08-21T23:01:59.311Z,73.65
2022-08-21T23:04:28.514Z,73.10
2022-08-21T23:06:57.702Z,71.09
2022-08-21T23:09:35.874Z,69.90
2022-08-21T23:12:21.156Z,70.42
2022-08-21T23:14:48.593Z,70.77
2022-08-21T23:17:32.981Z,68.92
2022-08-21T23:20:13.692Z,70.48
2022-08-21T23:22:59.433Z,69.72
2022-08-21T23:25:46.825Z,70.99
2022-08-21T23:28:26.310Z,71.04
2022-08-21T23:31:06.912Z,73.08
2022-08-21T23:34:06.100Z,73.70
2022-08-21T23:37:07.308Z,73.07
2022-08-21T23:39:55.259Z,70.74
2022-08-21T23:42:48.030Z,68.77
2022-08-21T23:45:33.102Z,70.10
2022-08-21T23:48:19.837Z,71.23
2022-08-21T23:51:01.461Z,70.78
2022-08-21T23:53:50.545Z,71.06
2022-08-21T23:56:27.711Z,69.95
2022-08-21T23:59:04.292Z,70.50
